createdAt,value
2023-02-14T00:01:07.518Z,97254.53
2023-02-14T00:03:35.711Z,97258.25
2023-02-14T00:06:09.042Z,97262.22
2023-02-14T00:08:36.977Z,97260.78
2023-02-14T00:11:05.381Z,97262.44
2023-02-14T00:13:33.099Z,97269.50
2023-02-14T00:16:00.078Z,97274.66
2023-02-14T00:18:48.324Z,97274.50
2023-02-14T00:21:17.441Z,97265.13
2023-02-14T00:23:45.151Z,97266.78
2023-02-14T00:26:16.406Z,97266.78
2023-02-14T00:28:44.852Z,97257.44
2023-02-14T00:31:14.566Z,97252.63
2023-02-14T00:33:42.415Z,97260.63
2023-02-14T00:36:12.100Z,97255.78
2023-02-14T00:38:41.128Z,97257.59
2023-02-14T00:41:08.784Z,97257.59
2023-02-14T00:43:36.516Z,97259.94
2023-02-14T00:46:04.270Z,97270.56
2023-02-14T00:48:31.973Z,97260.09
2023-02-14T00:50:59.997Z,97262.09
2023-02-14T00:53:27.972Z,97262.94
2023-02-14T00:55:57.060Z,97266.78
2023-02-14T00:58:24.845Z,97265.28
2023-02-14T01:00:53.891Z,97272.00
2023-02-14T01:03:21.871Z,97273.03
2023-02-14T01:05:50.226Z,97276.50
2023-02-14T01:08:18.240Z,97282.66
2023-02-14T01:10:46.296Z,97277.81
2023-02-14T01:13:15.975Z,97277.28
2023-02-14T01:15:45.945Z,97273.44
2023-02-14T01:18:17.691Z,97272.44
2023-02-14T01:20:46.001Z,97266.28
2023-02-14T01:23:13.816Z,97271.94
2023-02-14T01:25:41.540Z,97266.78
2023-02-14T01:28:09.302Z,97265.44
2023-02-14T01:30:43.820Z,97265.28
2023-02-14T01:33:11.544Z,97263.94
2023-02-14T01:35:39.570Z,97262.94
2023-02-14T01:38:07.537Z,97274.63
2023-02-14T01:40:35.508Z,97272.09
2023-02-14T01:43:03.216Z,97276.59
2023-02-14T01:45:32.172Z,97285.16
2023-02-14T01:48:01.572Z,97275.69
2023-02-14T01:50:34.889Z,97287.03
2023-02-14T01:53:05.973Z,97281.69
2023-02-14T01:55:36.929Z,97275.84
2023-02-14T01:58:09.790Z,97279.91
2023-02-14T02:00:56.165Z,97275.38
2023-02-14T02:03:27.697Z,97275.38
2023-02-14T02:06:00.772Z,97270.56
2023-02-14T02:08:28.689Z,97280.06
2023-02-14T02:10:56.425Z,97289.84
2023-02-14T02:13:24.196Z,97283.19
2023-02-14T02:15:59.780Z,97279.25
2023-02-14T02:18:39.419Z,97271.53
2023-02-14T02:21:41.931Z,97276.69
2023-02-14T02:24:25.109Z,97268.06
2023-02-14T02:27:19.257Z,97267.59
2023-02-14T02:30:23.099Z,97266.56
2023-02-14T02:33:13.060Z,97269.69
2023-02-14T02:36:08.779Z,97271.03
2023-02-14T02:38:49.661Z,97263.75
2023-02-14T02:41:27.243Z,97260.06
2023-02-14T02:44:04.404Z,97250.31
2023-02-14T02:46:51.162Z,97251.47
2023-02-14T02:49:48.375Z,97246.13
2023-02-14T02:52:45.040Z,97242.66
2023-02-14T02:55:17.030Z,97236.88
2023-02-14T02:57:45.400Z,97231.84
2023-02-14T03:00:17.092Z,97238.31
2023-02-14T03:03:05.806Z,97233.66
2023-02-14T03:05:35.353Z,97240.84
2023-02-14T03:08:05.018Z,97247.97
2023-02-14T03:10:35.895Z,97246.47
2023-02-14T03:13:24.620Z,97241.81
2023-02-14T03:16:16.497Z,97241.16
2023-02-14T03:18:58.789Z,97247.16
2023-02-14T03:21:32.874Z,97233.00
2023-02-14T03:24:10.667Z,97240.69
2023-02-14T03:26:45.445Z,97250.69
2023-02-14T03:29:19.163Z,97253.19
2023-02-14T03:31:56.622Z,97243.69
2023-02-14T03:34:31.498Z,97245.34
2023-02-14T03:37:02.684Z,97234.53
2023-02-14T03:39:37.686Z,97233.88
2023-02-14T03:42:10.489Z,97243.19
2023-02-14T03:44:40.502Z,97250.69
2023-02-14T03:47:12.649Z,97253.34
2023-02-14T03:49:44.064Z,97258.69
2023-02-14T03:52:13.709Z,97260.50
2023-02-14T03:54:43.986Z,97251.69
2023-02-14T03:57:20.965Z,97261.34
2023-02-14T03:59:49.779Z,97259.19
2023-02-14T04:02:23.645Z,97252.69
2023-02-14T04:04:53.951Z,97252.34
2023-02-14T04:07:24.081Z,97252.03
2023-02-14T04:09:53.378Z,97251.38
2023-02-14T04:12:35.784Z,97255.22
2023-02-14T04:15:05.026Z,97247.38
2023-02-14T04:17:50.405Z,97256.06
2023-02-14T04:20:18.196Z,97265.88
2023-02-14T04:22:46.495Z,97253.41
2023-02-14T04:25:16.387Z,97261.72
2023-02-14T04:27:44.176Z,97256.56
2023-02-14T04:30:13.513Z,97258.22
2023-02-14T04:32:41.686Z,97237.09
2023-02-14T04:35:12.819Z,97244.06
2023-02-14T04:37:40.596Z,97242.41
2023-02-14T04:40:09.645Z,97247.22
2023-02-14T04:42:38.774Z,97247.88
2023-02-14T04:45:07.071Z,97249.72
2023-02-14T04:47:34.795Z,97236.91
2023-02-14T04:50:05.241Z,97237.91
2023-02-14T04:52:32.986Z,97234.91
2023-02-14T04:55:00.754Z,97230.94
2023-02-14T04:57:28.513Z,97235.94
2023-02-14T04:59:57.610Z,97227.94
2023-02-14T05:02:25.447Z,97232.59
2023-02-14T05:04:53.215Z,97234.25
2023-02-14T05:07:20.932Z,97227.78
2023-02-14T05:09:48.637Z,97225.31
2023-02-14T05:12:17.110Z,97230.78
2023-02-14T05:14:44.795Z,97216.66
2023-02-14T05:17:17.364Z,97218.16
2023-02-14T05:19:45.268Z,97222.66
2023-02-14T05:22:13.027Z,97216.31
2023-02-14T05:24:40.740Z,97219.31
2023-02-14T05:27:11.609Z,97228.63
2023-02-14T05:29:39.395Z,97207.84
2023-02-14T05:32:07.204Z,97215.66
2023-02-14T05:34:36.326Z,97217.31
2023-02-14T05:37:04.049Z,97218.81
2023-02-14T05:39:31.809Z,97221.97
2023-02-14T05:41:59.580Z,97220.81
2023-02-14T05:44:28.291Z,97224.31
2023-02-14T05:46:56.193Z,97227.78
2023-02-14T05:49:23.927Z,97226.28
2023-02-14T05:51:53.037Z,97231.47
2023-02-14T05:54:20.770Z,97230.94
2023-02-14T05:56:48.529Z,97236.78
2023-02-14T05:59:16.275Z,97236.94
2023-02-14T06:01:44.074Z,97232.63
2023-02-14T06:04:12.317Z,97235.78
2023-02-14T06:06:40.159Z,97237.94
2023-02-14T06:09:09.278Z,97237.63
2023-02-14T06:11:37.231Z,97242.59
2023-02-14T06:14:04.987Z,97234.28
2023-02-14T06:16:32.838Z,97236.63
2023-02-14T06:19:00.561Z,97242.94
2023-02-14T06:21:28.316Z,97236.63
2023-02-14T06:23:56.045Z,97231.09
2023-02-14T06:26:27.874Z,97241.25
2023-02-14T06:28:56.076Z,97253.09
2023-02-14T06:31:24.037Z,97252.59
2023-02-14T06:33:52.166Z,97253.91
2023-02-14T06:36:20.267Z,97250.41
2023-02-14T06:38:48.823Z,97254.72
2023-02-14T06:41:17.964Z,97252.56
2023-02-14T06:43:49.043Z,97260.41
2023-02-14T06:46:17.717Z,97260.22
2023-02-14T06:48:45.889Z,97251.59
2023-02-14T06:51:13.851Z,97244.75
2023-02-14T06:53:41.728Z,97249.41
2023-02-14T06:56:09.408Z,97253.91
2023-02-14T06:59:03.521Z,97258.22
2023-02-14T07:01:31.317Z,97248.56
2023-02-14T07:03:59.041Z,97239.94
2023-02-14T07:06:29.632Z,97246.75
2023-02-14T07:08:57.370Z,97246.75
2023-02-14T07:11:25.824Z,97242.91
2023-02-14T07:13:53.552Z,97234.59
2023-02-14T07:16:22.621Z,97246.44
2023-02-14T07:18:50.373Z,97235.78
2023-02-14T07:21:18.159Z,97239.28
2023-02-14T07:23:47.803Z,97247.09
2023-02-14T07:26:18.196Z,97239.25
2023-02-14T07:28:46.232Z,97256.06
2023-02-14T07:31:14.080Z,97239.75
2023-02-14T07:33:43.243Z,97228.91
2023-02-14T07:36:16.736Z,97230.75
2023-02-14T07:38:44.498Z,97228.53
2023-02-14T07:41:12.443Z,97229.00
2023-02-14T07:43:40.223Z,97225.16
2023-02-14T07:46:08.535Z,97223.50
2023-02-14T07:48:36.367Z,97217.50
2023-02-14T07:51:05.486Z,97218.28
2023-02-14T07:53:33.296Z,97219.25
2023-02-14T07:56:01.107Z,97209.66
2023-02-14T07:58:28.922Z,97213.50
2023-02-14T08:00:56.874Z,97200.28
2023-02-14T08:03:24.927Z,97195.34
2023-02-14T08:05:57.110Z,97203.19
2023-02-14T08:08:27.842Z,97193.34
2023-02-14T08:10:55.731Z,97195.47
2023-02-14T08:13:23.576Z,97193.78
2023-02-14T08:16:06.844Z,97190.25
2023-02-14T08:18:37.899Z,97189.72
2023-02-14T08:21:07.388Z,97192.53
2023-02-14T08:23:36.955Z,97186.78
2023-02-14T08:26:05.149Z,97187.94
2023-02-14T08:28:33.560Z,97191.84
2023-02-14T08:31:02.535Z,97188.78
2023-02-14T08:33:31.065Z,97184.84
2023-02-14T08:35:58.856Z,97183.63
2023-02-14T08:38:26.659Z,97191.47
2023-02-14T08:40:55.832Z,97188.50
2023-02-14T08:43:23.538Z,97179.66
2023-02-14T08:45:53.883Z,97185.28
2023-02-14T08:48:23.548Z,97190.97
2023-02-14T08:50:51.549Z,97195.38
2023-02-14T08:53:19.316Z,97196.59
2023-02-14T08:55:47.224Z,97202.81
2023-02-14T08:58:16.424Z,97192.56
2023-02-14T09:00:44.188Z,97192.25
2023-02-14T09:03:13.324Z,97199.56
2023-02-14T09:05:41.104Z,97194.97
2023-02-14T09:08:08.984Z,97201.34
2023-02-14T09:10:37.894Z,97208.16
2023-02-14T09:13:05.751Z,97202.66
2023-02-14T09:15:36.843Z,97197.44
2023-02-14T09:18:04.704Z,97198.38
2023-02-14T09:20:32.571Z,97206.25
2023-02-14T09:23:01.997Z,97206.06
2023-02-14T09:25:29.718Z,97201.91
2023-02-14T09:27:59.392Z,97190.78
2023-02-14T09:30:29.232Z,97195.66
2023-02-14T09:32:58.367Z,97191.44
2023-02-14T09:35:26.185Z,97189.38
2023-02-14T09:37:53.028Z,97187.38
2023-02-14T09:40:21.558Z,97180.50
2023-02-14T09:43:03.428Z,97182.63
2023-02-14T09:45:33.350Z,97170.31
2023-02-14T09:48:08.603Z,97167.38
2023-02-14T09:50:43.516Z,97164.06
2023-02-14T09:53:21.463Z,97165.88
2023-02-14T09:55:57.027Z,97160.84
2023-02-14T09:58:28.569Z,97164.66
2023-02-14T10:01:01.073Z,97170.84
2023-02-14T10:03:49.144Z,97166.28
2023-02-14T10:06:40.633Z,97158.81
2023-02-14T10:09:17.070Z,97151.47
2023-02-14T10:11:47.372Z,97148.53
2023-02-14T10:14:18.282Z,97143.88
2023-02-14T10:16:52.680Z,97141.38
2023-02-14T10:19:28.629Z,97132.44
2023-02-14T10:22:00.593Z,97118.81
2023-02-14T10:24:32.046Z,97119.88
2023-02-14T10:27:11.012Z,97118.44
2023-02-14T10:29:39.126Z,97113.31
2023-02-14T10:32:15.121Z,97117.09
2023-02-14T10:34:49.095Z,97112.97
2023-02-14T10:37:29.579Z,97106.03
2023-02-14T10:40:26.019Z,97107.50
2023-02-14T10:42:59.054Z,97108.16
2023-02-14T10:45:34.578Z,97110.38
2023-02-14T10:48:06.189Z,97101.75
2023-02-14T10:50:45.882Z,97103.78
2023-02-14T10:53:20.685Z,97090.47
2023-02-14T10:55:53.950Z,97083.50
2023-02-14T10:58:23.670Z,97082.13
2023-02-14T11:00:59.312Z,97080.59
2023-02-14T11:03:28.757Z,97079.63
2023-02-14T11:05:57.955Z,97071.63
2023-02-14T11:08:27.845Z,97082.59
2023-02-14T11:10:58.514Z,97070.78
2023-02-14T11:13:31.582Z,97075.91
2023-02-14T11:16:04.447Z,97067.84
2023-02-14T11:18:35.786Z,97069.09
2023-02-14T11:21:08.818Z,97056.03
2023-02-14T11:23:40.022Z,97049.59
2023-02-14T11:26:15.832Z,97050.50
2023-02-14T11:28:52.174Z,97037.56
2023-02-14T11:31:31.279Z,97033.75
2023-02-14T11:34:01.507Z,97032.72
2023-02-14T11:36:32.711Z,97014.84
2023-02-14T11:39:07.473Z,97014.69
2023-02-14T11:41:49.689Z,97012.41
2023-02-14T11:44:22.716Z,97013.97
2023-02-14T11:46:53.431Z,97013.03
2023-02-14T11:49:31.159Z,97013.91
2023-02-14T11:52:02.979Z,97006.00
2023-02-14T11:54:35.654Z,97003.88
2023-02-14T11:57:09.658Z,97005.78
2023-02-14T11:59:41.908Z,96998.78
2023-02-14T12:02:22.842Z,96993.69
2023-02-14T12:04:53.390Z,96989.66
2023-02-14T12:07:26.954Z,96995.84
2023-02-14T12:10:17.111Z,96981.75
2023-02-14T12:12:51.070Z,96977.16
2023-02-14T12:15:29.085Z,96980.81
2023-02-14T12:18:03.324Z,96983.53
2023-02-14T12:20:39.526Z,96982.06
2023-02-14T12:23:16.371Z,96974.34
2023-02-14T12:25:50.984Z,96978.13
2023-02-14T12:28:23.652Z,96967.81
2023-02-14T12:30:51.485Z,96970.06
2023-02-14T12:33:21.756Z,96968.78
2023-02-14T12:35:59.651Z,96961.19
2023-02-14T12:38:43.708Z,96962.38
2023-02-14T12:41:26.331Z,96967.69
2023-02-14T12:43:56.308Z,96960.34
2023-02-14T12:46:44.585Z,96950.75
2023-02-14T12:49:27.334Z,96949.69
2023-02-14T12:52:07.970Z,96956.88
2023-02-14T12:54:50.577Z,96953.94
2023-02-14T12:57:32.962Z,96946.69
2023-02-14T13:00:17.519Z,96945.56
2023-02-14T13:03:16.206Z,96948.88
2023-02-14T13:05:56.785Z,96948.13
2023-02-14T13:08:40.352Z,96936.56
2023-02-14T13:11:16.880Z,96934.47
2023-02-14T13:13:57.204Z,96927.97
2023-02-14T13:16:31.890Z,96921.94
2023-02-14T13:19:07.833Z,96922.72
2023-02-14T13:21:38.150Z,96924.31
2023-02-14T13:24:18.801Z,96926.63
2023-02-14T13:26:53.833Z,96923.44
2023-02-14T13:29:24.680Z,96913.63
2023-02-14T13:31:57.918Z,96914.03
2023-02-14T13:34:33.403Z,96917.75
2023-02-14T13:37:03.230Z,96913.66
2023-02-14T13:39:38.304Z,96912.44
2023-02-14T13:42:08.562Z,96908.66
2023-02-14T13:44:47.699Z,96904.50
2023-02-14T13:47:21.058Z,96907.56
2023-02-14T13:49:51.930Z,96905.50
2023-02-14T13:52:41.500Z,96905.97
2023-02-14T13:55:15.564Z,96901.78
2023-02-14T13:57:44.779Z,96899.09
2023-02-14T14:00:42.152Z,96892.72
2023-02-14T14:03:15.242Z,96896.84
2023-02-14T14:06:00.740Z,96895.03
2023-02-14T14:08:49.280Z,96882.34
2023-02-14T14:12:00.762Z,96878.09
2023-02-14T14:14:37.918Z,96866.81
2023-02-14T14:17:29.349Z,96860.41
2023-02-14T14:19:58.121Z,96853.47
2023-02-14T14:22:26.734Z,96864.75
2023-02-14T14:24:57.533Z,96855.28
2023-02-14T14:27:28.203Z,96849.97
2023-02-14T14:29:59.093Z,96849.09
2023-02-14T14:32:30.326Z,96846.09
2023-02-14T14:34:59.823Z,96842.66
2023-02-14T14:37:29.558Z,96841.84
2023-02-14T14:40:00.120Z,96841.69
2023-02-14T14:42:30.971Z,96835.16
2023-02-14T14:45:02.773Z,96845.59
2023-02-14T14:47:36.824Z,96832.72
2023-02-14T14:50:09.917Z,96843.19
2023-02-14T14:52:42.482Z,96857.22
2023-02-14T14:55:19.393Z,96866.78
2023-02-14T14:57:52.256Z,96875.72
2023-02-14T15:00:33.456Z,96875.50
2023-02-14T15:03:07.749Z,96875.34
2023-02-14T15:05:41.802Z,96872.03
2023-02-14T15:08:23.722Z,96878.09
2023-02-14T15:10:56.109Z,96872.72
2023-02-14T15:13:50.915Z,96876.03
2023-02-14T15:16:23.176Z,96875.19
2023-02-14T15:18:52.570Z,96878.38
2023-02-14T15:21:20.655Z,96883.91
2023-02-14T15:23:48.858Z,96880.53
2023-02-14T15:26:25.052Z,96882.56
2023-02-14T15:28:58.062Z,96876.94
2023-02-14T15:31:31.012Z,96880.94
2023-02-14T15:34:01.407Z,96882.50
2023-02-14T15:36:30.243Z,96893.81
2023-02-14T15:38:59.679Z,96892.25
2023-02-14T15:41:28.184Z,96891.94
2023-02-14T15:43:57.683Z,96893.69
2023-02-14T15:46:35.465Z,96894.38
2023-02-14T15:49:10.170Z,96900.84
2023-02-14T15:51:39.707Z,96894.28
2023-02-14T15:54:10.148Z,96905.75
2023-02-14T15:56:44.371Z,96909.78
2023-02-14T15:59:18.318Z,96907.78
2023-02-14T16:01:54.462Z,96903.50
2023-02-14T16:04:26.864Z,96907.66
2023-02-14T16:07:07.221Z,96906.06
2023-02-14T16:09:35.632Z,96906.09
2023-02-14T16:12:27.426Z,96912.53
2023-02-14T16:15:04.601Z,96916.88
2023-02-14T16:17:35.904Z,96908.84
2023-02-14T16:20:23.579Z,96914.44
2023-02-14T16:22:52.000Z,96908.28
2023-02-14T16:25:20.317Z,96916.50
2023-02-14T16:27:48.214Z,96915.66
2023-02-14T16:30:18.672Z,96914.44
2023-02-14T16:32:53.718Z,96911.72
2023-02-14T16:35:22.915Z,96924.06
2023-02-14T16:37:52.904Z,96924.00
2023-02-14T16:40:26.436Z,96926.19
2023-02-14T16:42:54.850Z,96929.66
2023-02-14T16:45:22.630Z,96939.53
2023-02-14T16:47:51.802Z,96939.44
2023-02-14T16:50:20.398Z,96940.25
2023-02-14T16:52:52.595Z,96944.88
2023-02-14T16:55:20.919Z,96946.69
2023-02-14T16:57:53.076Z,96954.97
2023-02-14T17:00:22.057Z,96954.97
2023-02-14T17:02:51.311Z,96956.91
2023-02-14T17:05:19.301Z,96963.53
2023-02-14T17:07:47.087Z,96961.88
2023-02-14T17:10:20.586Z,96959.06
2023-02-14T17:12:49.487Z,96958.63
2023-02-14T17:15:21.292Z,96967.44
2023-02-14T17:17:53.330Z,96963.72
2023-02-14T17:20:22.039Z,96959.81
2023-02-14T17:22:50.395Z,96964.97
2023-02-14T17:25:18.568Z,96967.69
2023-02-14T17:27:46.470Z,96969.69
2023-02-14T17:30:15.806Z,96972.59
2023-02-14T17:32:44.490Z,96975.69
2023-02-14T17:35:14.531Z,96977.72
2023-02-14T17:37:42.755Z,96973.78
2023-02-14T17:40:11.612Z,96970.28
2023-02-14T17:42:39.733Z,96974.88
2023-02-14T17:45:08.723Z,96977.78
2023-02-14T17:47:36.679Z,96969.94
2023-02-14T17:50:04.748Z,96970.34
2023-02-14T17:52:34.456Z,96977.78
2023-02-14T17:55:02.380Z,96978.91
2023-02-14T17:57:30.248Z,96972.91
2023-02-14T17:59:59.698Z,96968.47
2023-02-14T18:02:27.770Z,96978.41
2023-02-14T18:04:57.882Z,96966.88
2023-02-14T18:07:26.265Z,96973.47
2023-02-14T18:09:55.581Z,96974.75
2023-02-14T18:12:23.496Z,96974.09
2023-02-14T18:14:53.315Z,96971.16
2023-02-14T18:17:21.431Z,96975.50
2023-02-14T18:19:49.329Z,96973.09
2023-02-14T18:22:17.256Z,96965.63
2023-02-14T18:24:45.142Z,96965.09
2023-02-14T18:27:15.903Z,96958.94
2023-02-14T18:29:43.819Z,96962.59
2023-02-14T18:32:11.798Z,96957.41
2023-02-14T18:34:39.731Z,96961.50
2023-02-14T18:37:07.663Z,96959.16
2023-02-14T18:39:38.647Z,96961.19
2023-02-14T18:42:06.898Z,96947.00
2023-02-14T18:44:36.321Z,96954.94
2023-02-14T18:47:06.566Z,96957.03
2023-02-14T18:49:35.172Z,96961.03
2023-02-14T18:52:04.894Z,96962.88
2023-02-14T18:54:32.667Z,96954.53
2023-02-14T18:57:00.385Z,96951.69
2023-02-14T18:59:28.104Z,96954.81
2023-02-14T19:01:57.177Z,96960.81
2023-02-14T19:04:24.869Z,96959.78
2023-02-14T19:06:52.617Z,96951.88
2023-02-14T19:09:20.467Z,96954.34
2023-02-14T19:11:48.203Z,96951.31
2023-02-14T19:14:15.916Z,96947.53
2023-02-14T19:16:50.346Z,96944.50
2023-02-14T19:19:19.728Z,96947.25
2023-02-14T19:21:47.527Z,96947.34
2023-02-14T19:24:17.454Z,96946.16
2023-02-14T19:26:45.479Z,96940.81
2023-02-14T19:29:15.791Z,96950.78
2023-02-14T19:31:45.984Z,96945.84
2023-02-14T19:34:17.620Z,96939.72
2023-02-14T19:36:48.060Z,96943.91
2023-02-14T19:39:19.030Z,96922.63
2023-02-14T19:41:51.132Z,96926.50
2023-02-14T19:44:19.745Z,96925.97
2023-02-14T19:46:47.849Z,96935.34
2023-02-14T19:49:17.301Z,96931.00
2023-02-14T19:51:47.363Z,96936.91
2023-02-14T19:54:15.764Z,96925.94
2023-02-14T19:56:47.579Z,96928.81
2023-02-14T19:59:21.737Z,96920.06
2023-02-14T20:01:51.841Z,96915.16
2023-02-14T20:04:22.035Z,96913.34
2023-02-14T20:06:52.152Z,96924.03
2023-02-14T20:09:21.930Z,96910.19
2023-02-14T20:11:50.988Z,96915.81
2023-02-14T20:14:20.756Z,96908.34
2023-02-14T20:16:52.512Z,96917.75
2023-02-14T20:19:22.146Z,96924.28
2023-02-14T20:21:52.177Z,96920.09
2023-02-14T20:24:21.870Z,96913.28
2023-02-14T20:26:50.541Z,96924.63
2023-02-14T20:29:19.016Z,96910.63
2023-02-14T20:31:48.410Z,96915.88
2023-02-14T20:34:19.412Z,96914.81
2023-02-14T20:36:49.639Z,96908.06
2023-02-14T20:39:18.777Z,96914.16
2023-02-14T20:41:49.885Z,96908.50
2023-02-14T20:44:21.466Z,96911.34
2023-02-14T20:46:53.484Z,96896.53
2023-02-14T20:49:22.744Z,96896.44
2023-02-14T20:51:54.309Z,96897.72
2023-02-14T20:54:25.457Z,96896.78
2023-02-14T20:56:53.343Z,96887.88
2023-02-14T20:59:26.305Z,96886.31
2023-02-14T21:01:54.733Z,96884.69
2023-02-14T21:04:22.807Z,96885.78
2023-02-14T21:06:50.626Z,96885.69
2023-02-14T21:09:20.649Z,96878.41
2023-02-14T21:11:50.267Z,96880.44
2023-02-14T21:14:18.162Z,96875.47
2023-02-14T21:16:46.000Z,96875.38
2023-02-14T21:19:13.698Z,96871.06
2023-02-14T21:21:41.510Z,96875.09
2023-02-14T21:24:11.651Z,96881.19
2023-02-14T21:26:40.258Z,96868.00
2023-02-14T21:29:10.367Z,96869.16
2023-02-14T21:31:38.622Z,96866.84
2023-02-14T21:34:06.923Z,96869.88
2023-02-14T21:36:36.574Z,96869.88
2023-02-14T21:39:06.964Z,96871.72
2023-02-14T21:41:36.513Z,96871.47
2023-02-14T21:44:05.172Z,96869.81
2023-02-14T21:46:37.069Z,96867.97
2023-02-14T21:49:24.028Z,96861.22
2023-02-14T21:51:51.826Z,96859.47
2023-02-14T21:54:19.661Z,96852.97
2023-02-14T21:56:49.163Z,96853.44
2023-02-14T21:59:16.961Z,96859.59
2023-02-14T22:01:46.077Z,96850.94
2023-02-14T22:04:14.193Z,96853.41
2023-02-14T22:06:43.541Z,96854.66
2023-02-14T22:09:14.087Z,96847.50
2023-02-14T22:11:42.197Z,96848.91
2023-02-14T22:14:09.952Z,96842.75
2023-02-14T22:16:38.154Z,96843.59
2023-02-14T22:19:08.972Z,96842.66
2023-02-14T22:21:36.776Z,96837.94
2023-02-14T22:24:04.981Z,96832.16
2023-02-14T22:26:35.396Z,96828.84
2023-02-14T22:29:05.861Z,96839.09
2023-02-14T22:31:38.240Z,96828.41
2023-02-14T22:34:09.904Z,96828.28
2023-02-14T22:36:37.720Z,96830.41
2023-02-14T22:39:09.374Z,96827.94
2023-02-14T22:41:37.911Z,96833.16
2023-02-14T22:44:06.900Z,96829.97
2023-02-14T22:46:36.679Z,96833.00
2023-02-14T22:49:08.022Z,96826.56
2023-02-14T22:51:38.544Z,96830.06
2023-02-14T22:54:07.950Z,96825.50
2023-02-14T23:01:05.701Z,96830.00
2023-02-14T23:03:33.744Z,96828.34
2023-02-14T23:06:01.967Z,96828.59
2023-02-14T23:08:29.845Z,96817.56
2023-02-14T23:10:57.566Z,96825.03
2023-02-14T23:13:43.116Z,96828.53
2023-02-14T23:16:29.626Z,96820.88
2023-02-14T23:19:20.388Z,96819.38
2023-02-14T23:22:04.942Z,96820.59
2023-02-14T23:24:33.545Z,96819.03
2023-02-14T23:27:01.466Z,96818.84
2023-02-14T23:29:29.230Z,96822.53
2023-02-14T23:32:05.936Z,96818.22
2023-02-14T23:34:35.953Z,96817.75
2023-02-14T23:37:03.895Z,96804.78
2023-02-14T23:39:32.619Z,96804.16
2023-02-14T23:42:01.250Z,96803.59
2023-02-14T23:44:32.644Z,96807.94
2023-02-14T23:47:04.164Z,96799.63
2023-02-14T23:49:33.561Z,96799.56
2023-02-14T23:52:01.494Z,96798.75
2023-02-14T23:54:29.592Z,96802.66
2023-02-14T23:56:58.763Z,96794.84
2023-02-14T23:59:29.382Z,96794.41
